createdAt,value
2023-05-12T00:01:42.231Z,4.30
2023-05-12T00:04:47.490Z,4.53
2023-05-12T00:07:53.057Z,5.18
2023-05-12T00:10:59.177Z,6.57
2023-05-12T00:14:05.117Z,5.43
2023-05-12T00:17:10.540Z,4.03
2023-05-12T00:20:15.880Z,5.78
2023-05-12T00:23:22.812Z,5.97
2023-05-12T00:26:28.131Z,5.38
2023-05-12T00:29:34.609Z,4.05
2023-05-12T00:32:39.853Z,4.35
2023-05-12T00:35:47.998Z,4.93
2023-05-12T00:38:54.459Z,5.50
2023-05-12T00:42:00.426Z,5.18
2023-05-12T00:45:08.054Z,5.43
2023-05-12T00:48:14.206Z,6.32
2023-05-12T00:51:19.877Z,5.28
2023-05-12T00:54:29.054Z,5.13
2023-05-12T00:57:34.627Z,5.07
2023-05-12T01:00:40.152Z,4.97
2023-05-12T01:03:46.649Z,5.88
2023-05-12T01:07:01.635Z,5.60
2023-05-12T01:10:21.879Z,8.38
2023-05-12T01:13:28.392Z,4.15
2023-05-12T01:16:39.926Z,4.13
2023-05-12T01:19:51.479Z,3.00
2023-05-12T01:26:12.062Z,4.80
2023-05-12T01:29:18.303Z,3.92
2023-05-12T01:32:23.984Z,3.42
2023-05-12T01:35:30.565Z,3.00
2023-05-12T01:38:38.658Z,5.32
2023-05-12T01:41:44.695Z,5.38
2023-05-12T01:44:50.025Z,4.28
2023-05-12T01:47:56.263Z,5.25
2023-05-12T01:51:02.109Z,3.92
2023-05-12T01:54:07.890Z,4.03
2023-05-12T01:57:16.492Z,5.82
2023-05-12T02:00:22.536Z,6.60
2023-05-12T02:03:31.248Z,4.18
2023-05-12T02:06:37.219Z,7.53
2023-05-12T02:09:42.890Z,6.57
2023-05-12T02:12:48.776Z,5.75
2023-05-12T02:15:54.653Z,5.07
2023-05-12T02:19:00.142Z,8.40
2023-05-12T02:22:05.796Z,5.78
2023-05-12T02:25:11.439Z,6.60
2023-05-12T02:28:17.344Z,6.47
2023-05-12T02:31:23.044Z,7.93
2023-05-12T02:34:28.612Z,9.82
2023-05-12T02:37:35.501Z,8.45
2023-05-12T02:40:40.850Z,10.13
2023-05-12T02:43:46.213Z,11.48
2023-05-12T02:46:51.697Z,13.18
2023-05-12T02:49:57.567Z,11.05
2023-05-12T02:53:02.713Z,9.93
2023-05-12T02:56:08.776Z,11.95
2023-05-12T02:59:14.222Z,12.10
2023-05-12T03:02:20.084Z,11.43
2023-05-12T03:05:25.664Z,11.48
2023-05-12T03:08:31.321Z,14.52
2023-05-12T03:11:37.021Z,14.13
2023-05-12T03:14:42.514Z,17.02
2023-05-12T03:17:48.189Z,14.82
2023-05-12T03:20:53.624Z,15.20
2023-05-12T03:24:01.785Z,13.23
2023-05-12T03:27:07.882Z,13.52
2023-05-12T03:30:14.209Z,11.43
2023-05-12T03:33:19.701Z,11.13
2023-05-12T03:36:25.836Z,12.77
2023-05-12T03:39:31.556Z,10.38
2023-05-12T03:42:37.145Z,9.43
2023-05-12T03:45:42.698Z,12.68
2023-05-12T03:48:48.393Z,10.82
2023-05-12T03:51:53.934Z,9.13
2023-05-12T03:54:59.227Z,8.70
2023-05-12T03:58:04.737Z,11.05
2023-05-12T04:01:10.717Z,8.10
2023-05-12T04:04:16.510Z,10.40
2023-05-12T04:07:22.403Z,11.10
2023-05-12T04:10:28.188Z,8.77
2023-05-12T04:13:33.654Z,8.85
2023-05-12T04:16:40.951Z,9.43
2023-05-12T04:19:47.006Z,11.57
2023-05-12T04:22:52.282Z,8.68
2023-05-12T04:25:58.034Z,10.52
2023-05-12T04:29:03.745Z,10.95
2023-05-12T04:32:10.038Z,11.48
2023-05-12T04:35:16.893Z,10.43
2023-05-12T04:38:22.893Z,7.43
2023-05-12T04:41:28.826Z,8.52
2023-05-12T04:44:34.799Z,6.65
2023-05-12T04:47:40.548Z,9.05
2023-05-12T04:50:46.866Z,7.43
2023-05-12T04:53:52.451Z,9.05
2023-05-12T04:56:58.497Z,10.70
2023-05-12T05:00:05.671Z,8.52
2023-05-12T05:03:11.691Z,12.60
2023-05-12T05:06:17.344Z,8.48
2023-05-12T05:09:23.328Z,7.18
2023-05-12T05:12:28.836Z,6.60
2023-05-12T05:15:34.556Z,6.03
2023-05-12T05:18:45.798Z,6.50
2023-05-12T05:24:57.588Z,6.22
2023-05-12T05:28:03.252Z,7.28
2023-05-12T05:31:13.844Z,8.48
2023-05-12T05:34:20.043Z,12.70
2023-05-12T05:37:26.727Z,4.47
2023-05-12T05:40:48.862Z,4.75
2023-05-12T05:43:58.591Z,5.65
2023-05-12T05:47:04.772Z,3.25
2023-05-12T05:50:11.271Z,2.47
2023-05-12T05:53:20.421Z,2.38
2023-05-12T05:56:25.820Z,2.80
2023-05-12T05:59:32.415Z,3.72
2023-05-12T06:02:38.316Z,3.38
2023-05-12T06:05:44.294Z,3.40
2023-05-12T06:08:50.789Z,3.05
2023-05-12T06:11:56.460Z,2.85
2023-05-12T06:15:02.417Z,4.53
2023-05-12T06:18:08.204Z,3.10
2023-05-12T06:21:14.257Z,5.20
2023-05-12T06:24:19.763Z,3.03
2023-05-12T06:27:25.654Z,3.97
2023-05-12T06:30:31.140Z,3.17
2023-05-12T06:33:37.049Z,5.28
2023-05-12T06:36:43.234Z,3.67
2023-05-12T06:39:48.847Z,4.65
2023-05-12T06:42:54.530Z,3.00
2023-05-12T06:46:00.099Z,3.05
2023-05-12T06:49:06.347Z,3.03
2023-05-12T06:52:14.261Z,3.60
2023-05-12T06:55:21.181Z,2.15
2023-05-12T06:58:27.086Z,1.70
2023-05-12T07:01:33.457Z,1.98
2023-05-12T07:04:39.278Z,3.72
2023-05-12T07:07:45.242Z,2.28
2023-05-12T07:10:51.240Z,3.38
2023-05-12T07:13:56.914Z,2.53
2023-05-12T07:17:03.200Z,2.92
2023-05-12T07:20:10.130Z,4.32
2023-05-12T07:23:17.002Z,2.80
2023-05-12T07:26:24.408Z,2.55
2023-05-12T07:29:30.370Z,4.75
2023-05-12T07:32:36.687Z,4.57
2023-05-12T07:35:42.551Z,2.95
2023-05-12T07:38:48.035Z,8.30
2023-05-12T07:41:54.426Z,5.47
2023-05-12T07:45:00.088Z,4.93
2023-05-12T07:48:05.918Z,6.10
2023-05-12T07:51:11.505Z,3.17
2023-05-12T07:54:17.199Z,8.93
2023-05-12T07:57:22.997Z,2.75
2023-05-12T08:00:28.908Z,4.20
2023-05-12T08:03:35.705Z,1.52
2023-05-12T08:06:41.851Z,2.50
2023-05-12T08:09:47.575Z,0.80
2023-05-12T08:12:53.015Z,0.50
2023-05-12T08:15:58.600Z,0.40
2023-05-12T08:19:04.137Z,1.50
2023-05-12T08:22:09.409Z,0.50
2023-05-12T08:25:15.107Z,0.50
2023-05-12T08:28:21.003Z,1.60
2023-05-12T08:31:27.102Z,1.02
2023-05-12T08:34:33.168Z,3.38
2023-05-12T08:37:39.237Z,1.88
2023-05-12T08:40:56.495Z,0.65
2023-05-12T08:44:02.978Z,0.70
2023-05-12T08:47:09.634Z,0.80
2023-05-12T08:50:19.246Z,8.20
2023-05-12T08:53:26.389Z,0.75
2023-05-12T08:59:44.276Z,0.65
2023-05-12T09:02:54.563Z,0.50
2023-05-12T09:06:01.856Z,0.45
2023-05-12T09:09:08.121Z,1.38
2023-05-12T09:12:18.553Z,0.40
2023-05-12T09:15:31.458Z,0.35
2023-05-12T09:18:53.576Z,0.50
2023-05-12T09:22:01.068Z,1.83
2023-05-12T09:25:19.333Z,0.98
2023-05-12T09:28:25.336Z,0.60
2023-05-12T09:31:31.072Z,0.88
2023-05-12T09:34:38.969Z,0.85
2023-05-12T09:37:46.837Z,0.63
2023-05-12T09:40:52.506Z,2.70
2023-05-12T09:44:00.246Z,1.23
2023-05-12T09:47:10.690Z,1.00
2023-05-12T09:50:16.449Z,1.00
2023-05-12T09:53:23.322Z,0.90
2023-05-12T09:56:29.889Z,0.70
2023-05-12T09:59:36.739Z,1.27
2023-05-12T10:02:45.609Z,1.25
2023-05-12T10:05:53.555Z,2.42
2023-05-12T10:09:04.885Z,1.25
2023-05-12T10:12:11.136Z,3.15
2023-05-12T10:15:18.491Z,3.00
2023-05-12T10:18:25.426Z,1.00
2023-05-12T10:21:32.293Z,2.38
2023-05-12T10:24:39.857Z,1.58
2023-05-12T10:27:46.523Z,1.58
2023-05-12T10:30:53.835Z,0.80
2023-05-12T10:34:01.703Z,0.73
2023-05-12T10:37:11.222Z,1.90
2023-05-12T10:40:27.277Z,0.82
2023-05-12T10:43:45.585Z,0.90
2023-05-12T10:46:59.038Z,1.80
2023-05-12T10:50:05.818Z,1.13
2023-05-12T10:53:11.721Z,0.80
2023-05-12T10:56:28.478Z,0.95
2023-05-12T10:59:34.741Z,1.13
2023-05-12T11:02:52.521Z,2.53
2023-05-12T11:06:04.092Z,2.47
2023-05-12T11:09:13.343Z,1.45
2023-05-12T11:12:19.575Z,1.40
2023-05-12T11:15:26.199Z,1.00
2023-05-12T11:18:31.911Z,1.63
2023-05-12T11:21:37.734Z,0.90
2023-05-12T11:24:43.734Z,0.88
2023-05-12T11:27:53.699Z,1.17
2023-05-12T11:30:58.933Z,0.57
2023-05-12T11:34:12.804Z,0.95
2023-05-12T11:37:21.722Z,1.58
2023-05-12T11:40:27.347Z,0.70
2023-05-12T11:43:32.966Z,2.38
2023-05-12T11:46:38.317Z,1.17
2023-05-12T11:49:56.326Z,0.85
2023-05-12T11:53:02.071Z,0.82
2023-05-12T11:56:08.421Z,0.77
2023-05-12T11:59:14.552Z,1.60
2023-05-12T12:02:22.268Z,3.42
2023-05-12T12:05:28.219Z,1.20
2023-05-12T12:08:34.268Z,1.20
2023-05-12T12:11:39.914Z,1.42
2023-05-12T12:14:48.084Z,1.10
2023-05-12T12:17:53.698Z,3.42
2023-05-12T12:20:58.877Z,1.48
2023-05-12T12:24:05.810Z,2.17
2023-05-12T12:27:11.154Z,4.00
2023-05-12T12:30:17.454Z,1.58
2023-05-12T12:33:22.826Z,1.63
2023-05-12T12:36:28.834Z,2.03
2023-05-12T12:39:34.637Z,2.20
2023-05-12T12:42:41.762Z,1.27
2023-05-12T12:45:47.413Z,2.08
2023-05-12T12:48:52.792Z,2.03
2023-05-12T12:51:58.239Z,3.00
2023-05-12T12:55:04.639Z,3.10
2023-05-12T12:58:10.601Z,2.88
2023-05-12T13:01:16.581Z,3.40
2023-05-12T13:04:23.569Z,1.73
2023-05-12T13:07:30.485Z,2.28
2023-05-12T13:10:35.732Z,1.70
2023-05-12T13:13:41.290Z,1.85
2023-05-12T13:16:47.292Z,2.70
2023-05-12T13:19:54.877Z,2.20
2023-05-12T13:23:00.824Z,2.20
2023-05-12T13:26:06.309Z,3.78
2023-05-12T13:29:12.106Z,3.35
2023-05-12T13:32:17.997Z,1.23
2023-05-12T13:35:23.835Z,3.00
2023-05-12T13:38:29.904Z,1.95
2023-05-12T13:41:35.627Z,1.70
2023-05-12T13:44:41.022Z,2.15
2023-05-12T13:47:46.544Z,2.92
2023-05-12T13:50:52.138Z,3.00
2023-05-12T13:53:57.716Z,5.47
2023-05-12T13:57:04.497Z,2.80
2023-05-12T14:00:10.459Z,12.10
2023-05-12T14:03:23.193Z,2.80
2023-05-12T14:06:28.435Z,3.95
2023-05-12T14:09:34.614Z,2.70
2023-05-12T14:12:42.826Z,5.85
2023-05-12T14:15:53.496Z,3.58
2023-05-12T14:19:03.171Z,4.63
2023-05-12T14:22:19.015Z,3.80
2023-05-12T14:25:31.567Z,5.43
2023-05-12T14:28:39.026Z,4.95
2023-05-12T14:31:44.620Z,25.60
2023-05-12T14:34:49.869Z,4.32
2023-05-12T14:37:56.994Z,3.20
2023-05-12T14:41:02.532Z,7.22
2023-05-12T14:44:08.557Z,3.50
2023-05-12T14:47:14.370Z,4.50
2023-05-12T14:50:20.636Z,3.50
2023-05-12T14:53:26.491Z,3.47
2023-05-12T14:56:32.036Z,4.05
2023-05-12T14:59:39.172Z,4.30
2023-05-12T15:02:45.613Z,4.95
2023-05-12T15:08:59.779Z,4.68
2023-05-12T15:12:05.988Z,3.08
2023-05-12T15:15:12.357Z,4.57
2023-05-12T15:18:18.128Z,5.40
2023-05-12T15:21:23.691Z,3.53
2023-05-12T15:24:29.638Z,3.00
2023-05-12T15:27:35.592Z,4.32
2023-05-12T15:30:41.151Z,4.72
2023-05-12T15:33:46.888Z,4.18
2023-05-12T15:36:52.847Z,4.25
2023-05-12T15:39:58.613Z,4.07
2023-05-12T15:43:05.398Z,3.78
2023-05-12T15:46:11.826Z,3.85
2023-05-12T15:49:18.259Z,3.97
2023-05-12T15:52:24.758Z,3.60
2023-05-12T15:55:32.576Z,4.65
2023-05-12T15:58:38.307Z,5.75
2023-05-12T16:01:43.824Z,6.82
2023-05-12T16:04:49.535Z,4.95
2023-05-12T16:07:55.262Z,3.95
2023-05-12T16:11:01.166Z,3.67
2023-05-12T16:14:07.799Z,3.85
2023-05-12T16:17:13.307Z,6.50
2023-05-12T16:20:19.393Z,4.25
2023-05-12T16:23:26.349Z,5.22
2023-05-12T16:26:32.061Z,4.97
2023-05-12T16:29:37.819Z,3.08
2023-05-12T16:32:43.871Z,5.82
2023-05-12T16:35:50.085Z,4.13
2023-05-12T16:38:55.959Z,1.30
2023-05-12T16:42:01.578Z,1.92
2023-05-12T16:45:08.176Z,2.03
2023-05-12T16:48:13.628Z,1.50
2023-05-12T16:51:19.559Z,4.15
2023-05-12T16:54:24.807Z,3.65
2023-05-12T16:57:30.596Z,3.83
2023-05-12T17:00:36.525Z,5.03
2023-05-12T17:03:42.277Z,3.85
2023-05-12T17:06:50.367Z,1.52
2023-05-12T17:09:55.998Z,2.97
2023-05-12T17:13:01.469Z,4.80
2023-05-12T17:16:07.380Z,3.05
2023-05-12T17:19:14.549Z,5.38
2023-05-12T17:22:21.258Z,6.05
2023-05-12T17:25:29.622Z,4.28
2023-05-12T17:28:35.602Z,3.63
2023-05-12T17:31:41.619Z,1.90
2023-05-12T17:34:50.796Z,2.63
2023-05-12T17:37:55.914Z,5.10
2023-05-12T17:41:01.412Z,3.60
2023-05-12T17:44:06.859Z,2.13
2023-05-12T17:47:14.158Z,3.15
2023-05-12T17:50:20.034Z,1.08
2023-05-12T17:53:26.430Z,3.03
2023-05-12T17:56:32.119Z,3.38
2023-05-12T17:59:38.465Z,4.80
2023-05-12T18:02:44.916Z,8.05
2023-05-12T18:05:52.705Z,5.03
2023-05-12T18:08:58.058Z,3.92
2023-05-12T18:12:03.796Z,7.38
2023-05-12T18:15:09.890Z,11.30
2023-05-12T18:18:15.267Z,7.32
2023-05-12T18:21:20.529Z,3.40
2023-05-12T18:24:26.585Z,3.75
2023-05-12T18:27:32.061Z,4.75
2023-05-12T18:30:37.732Z,4.15
2023-05-12T18:33:46.233Z,1.77
2023-05-12T18:36:52.087Z,2.85
2023-05-12T18:39:58.798Z,2.42
2023-05-12T18:43:04.394Z,5.60
2023-05-12T18:46:09.764Z,5.45
2023-05-12T18:49:14.612Z,2.22
2023-05-12T18:52:21.239Z,4.88
2023-05-12T18:55:26.687Z,4.15
2023-05-12T18:58:32.942Z,7.35
2023-05-12T19:01:38.725Z,7.25
2023-05-12T19:04:44.886Z,4.75
2023-05-12T19:07:50.944Z,3.70
2023-05-12T19:10:56.479Z,5.40
2023-05-12T19:14:03.528Z,10.60
2023-05-12T19:17:09.732Z,5.78
2023-05-12T19:20:15.389Z,3.65
2023-05-12T19:23:20.909Z,4.72
2023-05-12T19:26:27.140Z,4.75
2023-05-12T19:29:33.248Z,6.40
2023-05-12T19:32:40.192Z,6.25
2023-05-12T19:35:46.054Z,5.05
2023-05-12T19:38:51.971Z,5.78
2023-05-12T19:41:57.479Z,8.93
2023-05-12T19:45:03.360Z,5.13
2023-05-12T19:48:08.876Z,8.65
2023-05-12T19:51:14.684Z,6.50
2023-05-12T19:54:20.093Z,11.52
2023-05-12T19:57:25.934Z,8.15
2023-05-12T20:00:31.962Z,5.93
2023-05-12T20:03:38.332Z,6.90
2023-05-12T20:06:44.211Z,4.53
2023-05-12T20:09:50.025Z,5.78
2023-05-12T20:12:55.858Z,4.68
2023-05-12T20:16:01.566Z,4.45
2023-05-12T20:19:07.176Z,5.15
2023-05-12T20:22:13.044Z,5.13
2023-05-12T20:25:20.080Z,6.53
2023-05-12T20:28:26.322Z,6.13
2023-05-12T20:31:32.252Z,5.60
2023-05-12T20:34:38.375Z,9.85
2023-05-12T20:37:44.508Z,4.65
2023-05-12T20:40:50.324Z,4.80
2023-05-12T20:43:56.711Z,4.80
2023-05-12T20:47:02.882Z,3.83
2023-05-12T20:50:09.752Z,4.47
2023-05-12T20:53:15.348Z,3.75
2023-05-12T20:56:24.703Z,3.67
2023-05-12T20:59:30.038Z,5.40
2023-05-12T21:02:35.759Z,5.43
2023-05-12T21:05:42.305Z,5.30
2023-05-12T21:08:48.621Z,2.58
2023-05-12T21:11:54.241Z,4.15
2023-05-12T21:14:59.795Z,2.45
2023-05-12T21:18:05.404Z,2.97
2023-05-12T21:21:11.508Z,2.38
2023-05-12T21:24:18.090Z,4.25
2023-05-12T21:27:24.113Z,2.35
2023-05-12T21:30:29.805Z,4.28
2023-05-12T21:33:35.573Z,2.95
2023-05-12T21:36:41.239Z,2.92
2023-05-12T21:39:47.206Z,2.72
2023-05-12T21:42:52.737Z,2.72
2023-05-12T21:46:05.294Z,4.97
2023-05-12T21:49:10.963Z,5.63
2023-05-12T21:52:16.550Z,6.82
2023-05-12T21:55:22.480Z,5.07
2023-05-12T21:58:28.486Z,4.57
2023-05-12T22:01:34.161Z,3.08
2023-05-12T22:04:39.871Z,2.80
2023-05-12T22:07:45.594Z,2.55
2023-05-12T22:10:51.185Z,2.78
2023-05-12T22:13:57.036Z,2.45
2023-05-12T22:17:02.700Z,3.10
2023-05-12T22:20:09.579Z,2.95
2023-05-12T22:23:15.055Z,2.13
2023-05-12T22:26:20.924Z,2.30
2023-05-12T22:29:26.826Z,2.40
2023-05-12T22:32:32.516Z,2.55
2023-05-12T22:35:38.344Z,2.42
2023-05-12T22:38:43.721Z,4.50
2023-05-12T22:41:49.325Z,2.42
2023-05-12T22:44:55.246Z,2.65
2023-05-12T22:48:00.916Z,2.60
2023-05-12T22:51:06.859Z,2.22
2023-05-12T22:54:12.551Z,4.00
2023-05-12T22:57:18.319Z,5.28
2023-05-12T23:00:24.166Z,2.60
2023-05-12T23:03:30.020Z,2.10
2023-05-12T23:06:36.063Z,1.65
2023-05-12T23:09:41.682Z,3.08
2023-05-12T23:12:47.441Z,13.25
2023-05-12T23:15:52.708Z,2.22
2023-05-12T23:18:58.756Z,2.63
2023-05-12T23:22:04.529Z,3.58
2023-05-12T23:25:10.418Z,3.28
2023-05-12T23:28:16.144Z,4.47
2023-05-12T23:31:22.008Z,2.67
2023-05-12T23:34:27.626Z,2.55
2023-05-12T23:37:33.252Z,5.95
2023-05-12T23:40:39.467Z,2.63
2023-05-12T23:43:44.705Z,5.28
2023-05-12T23:46:50.740Z,3.00
2023-05-12T23:49:56.328Z,12.32
2023-05-12T23:53:02.354Z,6.25
2023-05-12T23:56:08.578Z,3.35
2023-05-12T23:59:13.904Z,2.55
